createdAt,value
2022-11-28T00:01:35.539Z,6.60
2022-11-28T00:06:32.021Z,6.45
2022-11-28T00:11:28.929Z,7.50
2022-11-28T00:16:25.573Z,7.03
2022-11-28T00:21:22.889Z,5.97
2022-11-28T00:26:28.098Z,6.22
2022-11-28T00:31:26.828Z,6.10
2022-11-28T00:36:25.180Z,6.00
2022-11-28T00:41:28.809Z,5.82
2022-11-28T00:46:25.933Z,5.57
2022-11-28T00:51:31.621Z,5.32
2022-11-28T00:56:31.068Z,5.93
2022-11-28T01:01:33.807Z,5.40
2022-11-28T01:06:33.068Z,5.70
2022-11-28T01:11:30.238Z,5.95
2022-11-28T01:16:27.982Z,5.05
2022-11-28T01:21:25.194Z,5.60
2022-11-28T01:26:24.901Z,5.50
2022-11-28T01:31:24.742Z,5.90
2022-11-28T01:36:22.185Z,6.03
2022-11-28T01:41:22.442Z,5.10
2022-11-28T01:46:19.136Z,5.47
2022-11-28T01:51:15.929Z,5.28
2022-11-28T01:56:19.338Z,4.90
2022-11-28T02:01:17.008Z,5.32
2022-11-28T02:06:15.861Z,5.47
2022-11-28T02:11:22.548Z,5.25
2022-11-28T02:16:40.203Z,5.17
2022-11-28T02:21:59.701Z,4.97
2022-11-28T02:27:08.021Z,5.88
2022-11-28T02:32:25.873Z,5.40
2022-11-28T02:37:47.133Z,5.00
2022-11-28T02:42:50.750Z,4.63
2022-11-28T02:47:56.055Z,5.10
2022-11-28T02:52:56.818Z,5.32
2022-11-28T02:57:54.669Z,5.47
2022-11-28T03:03:06.003Z,5.60
2022-11-28T03:08:08.262Z,4.93
2022-11-28T03:13:22.021Z,5.18
2022-11-28T03:18:23.320Z,4.60
2022-11-28T03:23:23.314Z,4.85
2022-11-28T03:28:23.125Z,4.78
2022-11-28T03:33:21.303Z,4.55
2022-11-28T03:38:24.357Z,4.82
2022-11-28T03:43:25.954Z,4.97
2022-11-28T03:48:35.962Z,5.22
2022-11-28T03:53:59.018Z,5.03
2022-11-28T03:59:01.410Z,5.43
2022-11-28T04:04:24.082Z,5.18
2022-11-28T04:09:36.639Z,5.13
2022-11-28T04:14:42.213Z,5.13
2022-11-28T04:19:51.197Z,5.53
2022-11-28T04:24:56.885Z,5.47
2022-11-28T04:29:56.807Z,5.00
2022-11-28T04:35:10.036Z,5.18
2022-11-28T04:40:12.975Z,5.38
2022-11-28T04:45:17.102Z,5.03
2022-11-28T04:50:14.363Z,6.05
2022-11-28T04:55:19.544Z,5.63
2022-11-28T05:00:18.963Z,5.10
2022-11-28T05:05:21.819Z,5.30
2022-11-28T05:10:19.285Z,5.97
2022-11-28T05:15:19.445Z,5.20
2022-11-28T05:20:16.016Z,23.75
2022-11-28T05:25:12.930Z,5.35
2022-11-28T05:30:12.609Z,5.47
2022-11-28T05:35:10.473Z,5.80
2022-11-28T05:40:07.731Z,6.00
2022-11-28T05:45:04.614Z,5.72
2022-11-28T06:07:32.849Z,5.07
2022-11-28T07:03:12.183Z,5.97
2022-11-28T07:25:37.315Z,6.28
2022-11-28T08:31:31.909Z,7.55
2022-11-28T09:02:02.268Z,7.63
2022-11-28T09:18:14.690Z,7.22
2022-11-28T09:35:23.273Z,7.80
2022-11-28T10:06:39.110Z,7.18
2022-11-28T11:16:09.756Z,7.35
2022-11-28T16:22:49.245Z,9.50
2022-11-28T17:01:00.021Z,11.10
2022-11-28T17:05:56.701Z,10.13
2022-11-28T17:10:53.374Z,10.90
2022-11-28T17:15:50.104Z,11.20
2022-11-28T17:20:46.776Z,11.48
2022-11-28T17:25:44.416Z,10.73
2022-11-28T17:30:41.259Z,11.23
2022-11-28T17:35:43.158Z,10.15
2022-11-28T17:40:42.138Z,14.02
2022-11-28T17:45:38.831Z,10.32
2022-11-28T17:50:35.838Z,10.40
2022-11-28T18:00:29.360Z,10.93
2022-11-28T18:10:22.372Z,10.10
2022-11-28T18:15:19.070Z,11.60
2022-11-28T18:20:15.640Z,10.77
2022-11-28T18:25:12.381Z,10.95
2022-11-28T18:30:09.432Z,11.45
2022-11-28T18:40:08.789Z,12.23
2022-11-28T18:45:06.275Z,11.00
2022-11-28T18:50:02.811Z,11.32
2022-11-28T18:54:59.395Z,11.32
2022-11-28T18:59:56.632Z,11.40
2022-11-28T19:04:53.978Z,11.52
2022-11-28T19:09:50.903Z,11.13
2022-11-28T19:19:44.868Z,10.93
2022-11-28T19:24:41.676Z,11.75
2022-11-28T19:29:38.333Z,11.07
2022-11-28T19:34:34.829Z,11.38
2022-11-28T19:39:31.566Z,11.27
2022-11-28T19:44:29.363Z,10.85
2022-11-28T19:49:25.993Z,10.90
2022-11-28T19:54:22.748Z,10.70
2022-11-28T19:59:19.455Z,11.15
2022-11-28T20:04:16.437Z,11.30
2022-11-28T20:14:14.245Z,10.45
2022-11-28T20:19:11.689Z,10.65
2022-11-28T20:24:08.536Z,11.93
2022-11-28T20:29:06.235Z,11.95
2022-11-28T20:34:03.553Z,12.40
2022-11-28T20:39:00.104Z,11.98
2022-11-28T20:43:58.368Z,10.38
2022-11-28T20:48:57.335Z,10.82
2022-11-28T20:53:54.618Z,11.60
2022-11-28T20:58:51.925Z,11.57
2022-11-28T21:03:48.794Z,11.40
2022-11-28T21:08:45.717Z,10.75
2022-11-28T21:13:42.933Z,11.55
2022-11-28T21:18:41.251Z,11.68
2022-11-28T21:23:38.262Z,11.85
2022-11-28T21:33:32.432Z,11.47
2022-11-28T21:38:30.001Z,11.98
2022-11-28T21:43:28.867Z,11.30
2022-11-28T21:48:25.404Z,11.15
2022-11-28T21:53:21.937Z,12.13
2022-11-28T21:58:21.206Z,12.65
2022-11-28T22:03:22.180Z,11.85
2022-11-28T22:08:20.283Z,12.75
2022-11-28T22:13:16.921Z,11.38
2022-11-28T22:18:13.473Z,12.18
2022-11-28T22:23:10.117Z,11.82
2022-11-28T22:28:06.686Z,12.52
2022-11-28T22:33:03.300Z,12.48
2022-11-28T22:38:00.100Z,12.25
2022-11-28T22:42:56.886Z,13.18
2022-11-28T22:47:53.366Z,12.32
2022-11-28T22:52:49.985Z,12.45
2022-11-28T22:57:46.531Z,13.32
2022-11-28T23:02:43.213Z,12.48
2022-11-28T23:07:39.819Z,12.07
2022-11-28T23:12:36.445Z,13.05
2022-11-28T23:17:33.056Z,13.18
2022-11-28T23:22:29.868Z,12.70
2022-11-28T23:27:28.759Z,13.57
2022-11-28T23:32:25.370Z,12.98
2022-11-28T23:37:21.993Z,13.25
2022-11-28T23:42:18.514Z,13.52
2022-11-28T23:47:15.076Z,13.80
2022-11-28T23:52:11.659Z,13.75
2022-11-28T23:57:08.175Z,14.40
